Badlands National Park, SD

9:03 AM MDT on July 22, 2014 (GMT -0600)
Philip (KPHP) Elev 2208 ft | 44.05 °N, 101.60 °W | Change Station

Current weather conditions updated 8 minutes ago

Clear
Clear
74 °F
Feels Like 74 °F
N
9
Wind Variable Wind from NNE

Today is forecast to be Much Cooler than yesterday.

Today
High -- | Low -- °F
--% Chance of Precip.
Yesterday
High -- | Low -- °F
Precip. -- in
5:26 AM 8:21 PM
Waning Crescent, 17% visible
Pressure 30.10 in
Visibility 10.0 miles
Clouds Clear
Dew Point 63 °F
Humidity 68%
Rainfall 0.03 in
Snow Depth Not available.
UV 4 out of 12
Pollen 6.10 out of 12
Air Quality Not available.
Flu Activity Sporadic
METAR KPHP 221455Z AUTO 02008KT 340V040 10SM CLR 23/17 A3017 RMK AO2 SLP193 T02330172 55003

More Conditions Fewer Conditions

Pressure 30.10 in
Visibility 10.0 miles
Clouds Clear
Dew Point 63 °F
Humidity 68%
Rainfall 0.03 in
Snow Depth Not available.
UV 4 out of 12
Pollen 6.10 out of 12
Air Quality Not available.
Flu Activity Sporadic
METAR KPHP 221455Z AUTO 02008KT 340V040 10SM CLR 23/17 A3017 RMK AO2 SLP193 T02330172 55003

More Conditions Fewer Conditions

10-Day Weather Forecast

LIGHTNING

Thunderstorms are forecast for your area. Cloud conditions might be right for producing strikes in the next few days, though lightning itself cannot be forecasted.

Lightning is a visible electrical discharge produced by a thunderstorm, based on the build up of oppositely charged particles within a cloud and from cloud to ground.

Know how to stay safe in a lightning storm.

Check out these Lightning WunderPhotos!

Almanac

Astronomy

Jul. 22, 2014 Rise Set
Actual Time 5:26 AM MDT 8:21 PM MDT
Civil Twilight 4:52 AM MDT 8:55 PM MDT
Nautical Twilight 4:09 AM MDT 9:38 PM MDT
Astronomical Twilight 3:18 AM MDT 10:28 PM MDT
Moon 2:02 AM MDT 5:00 PM MDT
Length of Visible Light 16h 03m
Length of Day
14h 55m
Tomorrow will be 1m 55s shorter.
Waning Crescent, 17% of the Moon is Illuminated
Today
Waning Crescent
Jul 26
New
Aug 3
First Quarter
Aug 10
Full
Aug 17
Last Quarter

Today's Extremes

State Highs State Lows

Community

WunderPhotos

Upload Photos

1,736,257 photos uploaded!

Nearby

Snow Depth

Station Depth Elevation
Blind Park 1 in 6890 ft

Earthquake Activity

City Distance Mag. Time & Date
No recent earthquake activity has been reported nearby.
Minimum magnitude displayed is 2.5.

Coastal Water Temperatures

Place Temperature
No Stations Reporting

Nearby Weather Stations

There are no personal weather stations in this area.